sensor_id;sensor_type;location;lat;lon;timestamp;pressure;altitude;pressure_sealevel;temperature;humidity
13604;BME280;24578;48.264;11.436;2023-05-25T00:00:21;96434.59;;;10.55;100.00
13604;BME280;24578;48.264;11.436;2023-05-25T00:03:43;96429.22;;;10.58;100.00
13604;BME280;24578;48.264;11.436;2023-05-25T00:07:06;96434.28;;;10.60;100.00
13604;BME280;24578;48.264;11.436;2023-05-25T00:10:28;96432.34;;;10.63;100.00
13604;BME280;24578;48.264;11.436;2023-05-25T00:13:50;96432.53;;;10.60;100.00
13604;BME280;24578;48.264;11.436;2023-05-25T00:17:12;96424.97;;;10.57;100.00
13604;BME280;24578;48.264;11.436;2023-05-25T00:20:34;96424.03;;;10.58;100.00
13604;BME280;24578;48.264;11.436;2023-05-25T00:23:56;96415.56;;;10.56;100.00
13604;BME280;24578;48.264;11.436;2023-05-25T00:27:18;96422.59;;;10.54;100.00
13604;BME280;24578;48.264;11.436;2023-05-25T00:30:39;96423.44;;;10.55;100.00
13604;BME280;24578;48.264;11.436;2023-05-25T00:34:01;96433.78;;;10.55;100.00
13604;BME280;24578;48.264;11.436;2023-05-25T00:37:23;96436.66;;;10.63;100.00
13604;BME280;24578;48.264;11.436;2023-05-25T00:40:45;96439.38;;;10.61;100.00
13604;BME280;24578;48.264;11.436;2023-05-25T00:44:07;96431.22;;;10.55;100.00
13604;BME280;24578;48.264;11.436;2023-05-25T00:47:29;96427.78;;;10.54;100.00
13604;BME280;24578;48.264;11.436;2023-05-25T00:50:54;96434.59;;;10.55;100.00
13604;BME280;24578;48.264;11.436;2023-05-25T00:54:20;96446.09;;;10.51;100.00
13604;BME280;24578;48.264;11.436;2023-05-25T00:57:48;96431.28;;;10.53;100.00
13604;BME280;24578;48.264;11.436;2023-05-25T01:01:14;96420.53;;;10.46;100.00
13604;BME280;24578;48.264;11.436;2023-05-25T01:04:43;96425.31;;;10.40;100.00
13604;BME280;24578;48.264;11.436;2023-05-25T01:08:07;96413.31;;;10.39;100.00
13604;BME280;24578;48.264;11.436;2023-05-25T01:11:35;96422.41;;;10.31;100.00
13604;BME280;24578;48.264;11.436;2023-05-25T01:14:58;96417.44;;;10.28;100.00
13604;BME280;24578;48.264;11.436;2023-05-25T01:18:21;96414.72;;;10.30;100.00
13604;BME280;24578;48.264;11.436;2023-05-25T01:21:57;96418.25;;;10.29;100.00
13604;BME280;24578;48.264;11.436;2023-05-25T01:25:26;96418.34;;;10.27;100.00
13604;BME280;24578;48.264;11.436;2023-05-25T01:28:51;96426.84;;;10.29;100.00
13604;BME280;24578;48.264;11.436;2023-05-25T01:32:16;96433.06;;;10.27;100.00
13604;BME280;24578;48.264;11.436;2023-05-25T01:35:40;96428.41;;;10.19;100.00
13604;BME280;24578;48.264;11.436;2023-05-25T01:39:04;96432.94;;;10.15;100.00
13604;BME280;24578;48.264;11.436;2023-05-25T01:42:26;96441.88;;;10.11;100.00
13604;BME280;24578;48.264;11.436;2023-05-25T01:45:50;96434.81;;;10.13;100.00
13604;BME280;24578;48.264;11.436;2023-05-25T01:49:25;96424.66;;;10.23;100.00
13604;BME280;24578;48.264;11.436;2023-05-25T01:53:01;96435.75;;;10.25;100.00
13604;BME280;24578;48.264;11.436;2023-05-25T01:56:28;96439.47;;;10.21;100.00
13604;BME280;24578;48.264;11.436;2023-05-25T01:59:55;96438.97;;;10.16;100.00
13604;BME280;24578;48.264;11.436;2023-05-25T02:03:20;96436.97;;;10.06;100.00
13604;BME280;24578;48.264;11.436;2023-05-25T02:06:42;96435.13;;;10.09;100.00
13604;BME280;24578;48.264;11.436;2023-05-25T02:10:05;96423.03;;;10.09;100.00
13604;BME280;24578;48.264;11.436;2023-05-25T02:13:27;96430.06;;;10.07;100.00
13604;BME280;24578;48.264;11.436;2023-05-25T02:16:49;96426.13;;;10.01;100.00
13604;BME280;24578;48.264;11.436;2023-05-25T02:20:11;96419.72;;;10.07;100.00
13604;BME280;24578;48.264;11.436;2023-05-25T02:23:33;96420.22;;;9.99;100.00
13604;BME280;24578;48.264;11.436;2023-05-25T02:26:55;96413.06;;;9.90;100.00
13604;BME280;24578;48.264;11.436;2023-05-25T02:30:16;96426.09;;;9.88;100.00
13604;BME280;24578;48.264;11.436;2023-05-25T02:33:38;96413.00;;;9.92;100.00
13604;BME280;24578;48.264;11.436;2023-05-25T02:37:00;96411.41;;;9.89;100.00
13604;BME280;24578;48.264;11.436;2023-05-25T02:40:22;96396.63;;;9.91;100.00
13604;BME280;24578;48.264;11.436;2023-05-25T02:43:43;96413.06;;;9.90;100.00
13604;BME280;24578;48.264;11.436;2023-05-25T02:47:05;96411.00;;;9.95;100.00
13604;BME280;24578;48.264;11.436;2023-05-25T02:50:28;96416.19;;;9.95;100.00
13604;BME280;24578;48.264;11.436;2023-05-25T02:53:49;96410.28;;;9.93;100.00
13604;BME280;24578;48.264;11.436;2023-05-25T02:57:12;96401.31;;;9.86;100.00
13604;BME280;24578;48.264;11.436;2023-05-25T03:00:33;96406.88;;;9.93;100.00
13604;BME280;24578;48.264;11.436;2023-05-25T03:03:56;96407.19;;;10.01;100.00
13604;BME280;24578;48.264;11.436;2023-05-25T03:07:18;96407.28;;;10.12;100.00
13604;BME280;24578;48.264;11.436;2023-05-25T03:10:40;96407.28;;;10.12;100.00
13604;BME280;24578;48.264;11.436;2023-05-25T03:14:02;96414.53;;;10.20;100.00
13604;BME280;24578;48.264;11.436;2023-05-25T03:17:24;96407.38;;;10.36;100.00
13604;BME280;24578;48.264;11.436;2023-05-25T03:20:45;96416.19;;;10.34;100.00
13604;BME280;24578;48.264;11.436;2023-05-25T03:24:08;96414.75;;;10.43;100.00
13604;BME280;24578;48.264;11.436;2023-05-25T03:27:29;96414.44;;;10.47;100.00
13604;BME280;24578;48.264;11.436;2023-05-25T03:30:51;96418.34;;;10.53;100.00
13604;BME280;24578;48.264;11.436;2023-05-25T03:34:13;96418.88;;;10.58;100.00
13604;BME280;24578;48.264;11.436;2023-05-25T03:37:35;96420.00;;;10.67;100.00
13604;BME280;24578;48.264;11.436;2023-05-25T03:40:57;96431.69;;;10.73;100.00
13604;BME280;24578;48.264;11.436;2023-05-25T03:44:18;96427.00;;;10.78;100.00
13604;BME280;24578;48.264;11.436;2023-05-25T03:47:40;96434.25;;;10.86;100.00
13604;BME280;24578;48.264;11.436;2023-05-25T03:51:02;96430.00;;;10.85;100.00
13604;BME280;24578;48.264;11.436;2023-05-25T03:54:24;96436.38;;;10.92;100.00
13604;BME280;24578;48.264;11.436;2023-05-25T03:57:46;96426.22;;;11.02;100.00
13604;BME280;24578;48.264;11.436;2023-05-25T04:01:08;96429.44;;;11.05;100.00
13604;BME280;24578;48.264;11.436;2023-05-25T04:04:30;96428.03;;;11.12;100.00
13604;BME280;24578;48.264;11.436;2023-05-25T04:07:52;96430.09;;;11.20;100.00
13604;BME280;24578;48.264;11.436;2023-05-25T04:11:14;96428.47;;;11.31;100.00
13604;BME280;24578;48.264;11.436;2023-05-25T04:14:36;96428.16;;;11.35;100.00
13604;BME280;24578;48.264;11.436;2023-05-25T04:17:57;96437.41;;;11.51;100.00
13604;BME280;24578;48.264;11.436;2023-05-25T04:21:20;96440.03;;;11.62;100.00
13604;BME280;24578;48.264;11.436;2023-05-25T04:24:41;96444.75;;;11.68;100.00
13604;BME280;24578;48.264;11.436;2023-05-25T04:28:03;96448.44;;;11.77;100.00
13604;BME280;24578;48.264;11.436;2023-05-25T04:31:25;96447.88;;;11.85;100.00
13604;BME280;24578;48.264;11.436;2023-05-25T04:34:47;96457.47;;;11.96;100.00
13604;BME280;24578;48.264;11.436;2023-05-25T04:38:09;96448.91;;;12.07;100.00
13604;BME280;24578;48.264;11.436;2023-05-25T04:41:32;96444.59;;;12.18;100.00
13604;BME280;24578;48.264;11.436;2023-05-25T04:44:54;96448.56;;;12.23;100.00
13604;BME280;24578;48.264;11.436;2023-05-25T04:48:16;96441.28;;;12.28;100.00
13604;BME280;24578;48.264;11.436;2023-05-25T04:51:38;96448.84;;;12.42;100.00
13604;BME280;24578;48.264;11.436;2023-05-25T04:55:00;96444.72;;;12.51;100.00
13604;BME280;24578;48.264;11.436;2023-05-25T04:58:23;96448.38;;;12.60;100.00
13604;BME280;24578;48.264;11.436;2023-05-25T05:01:45;96441.28;;;12.73;100.00
13604;BME280;24578;48.264;11.436;2023-05-25T05:05:06;96442.47;;;12.81;100.00
13604;BME280;24578;48.264;11.436;2023-05-25T05:08:28;96453.06;;;12.89;100.00
13604;BME280;24578;48.264;11.436;2023-05-25T05:11:50;96457.09;;;12.93;100.00
13604;BME280;24578;48.264;11.436;2023-05-25T05:15:12;96458.00;;;13.03;100.00
13604;BME280;24578;48.264;11.436;2023-05-25T05:18:33;96457.06;;;13.04;100.00
13604;BME280;24578;48.264;11.436;2023-05-25T05:21:55;96459.91;;;13.01;100.00
13604;BME280;24578;48.264;11.436;2023-05-25T05:25:17;96462.16;;;13.06;100.00
13604;BME280;24578;48.264;11.436;2023-05-25T05:28:39;96468.97;;;13.18;100.00
13604;BME280;24578;48.264;11.436;2023-05-25T05:32:01;96470.41;;;13.22;100.00
13604;BME280;24578;48.264;11.436;2023-05-25T05:35:22;96474.03;;;13.20;100.00
13604;BME280;24578;48.264;11.436;2023-05-25T05:38:44;96480.78;;;13.22;100.00
13604;BME280;24578;48.264;11.436;2023-05-25T05:42:07;96474.28;;;13.17;100.00
13604;BME280;24578;48.264;11.436;2023-05-25T05:45:29;96478.53;;;13.29;100.00
13604;BME280;24578;48.264;11.436;2023-05-25T05:48:51;96485.88;;;13.24;100.00
13604;BME280;24578;48.264;11.436;2023-05-25T05:52:13;96482.44;;;13.23;100.00
13604;BME280;24578;48.264;11.436;2023-05-25T05:55:35;96483.38;;;13.34;100.00
13604;BME280;24578;48.264;11.436;2023-05-25T05:58:56;96481.34;;;13.37;100.00
13604;BME280;24578;48.264;11.436;2023-05-25T06:02:18;96484.88;;;13.48;100.00
13604;BME280;24578;48.264;11.436;2023-05-25T06:05:40;96491.13;;;13.57;100.00
13604;BME280;24578;48.264;11.436;2023-05-25T06:09:02;96492.03;;;13.67;100.00
13604;BME280;24578;48.264;11.436;2023-05-25T06:12:27;96485.38;;;13.74;100.00
13604;BME280;24578;48.264;11.436;2023-05-25T06:15:48;96492.88;;;13.89;100.00
13604;BME280;24578;48.264;11.436;2023-05-25T06:19:10;96489.88;;;14.05;100.00
13604;BME280;24578;48.264;11.436;2023-05-25T06:22:32;96491.19;;;14.20;100.00
13604;BME280;24578;48.264;11.436;2023-05-25T06:25:54;96496.66;;;14.17;100.00
13604;BME280;24578;48.264;11.436;2023-05-25T06:29:15;96505.81;;;14.11;100.00
13604;BME280;24578;48.264;11.436;2023-05-25T06:32:37;96503.44;;;14.29;100.00
13604;BME280;24578;48.264;11.436;2023-05-25T06:35:59;96506.59;;;14.33;100.00
13604;BME280;24578;48.264;11.436;2023-05-25T06:39:21;96511.13;;;14.31;100.00
13604;BME280;24578;48.264;11.436;2023-05-25T06:42:43;96508.84;;;14.38;100.00
13604;BME280;24578;48.264;11.436;2023-05-25T06:46:04;96512.53;;;14.14;100.00
13604;BME280;24578;48.264;11.436;2023-05-25T06:49:26;96518.88;;;14.21;100.00
13604;BME280;24578;48.264;11.436;2023-05-25T06:52:48;96518.88;;;14.21;100.00
13604;BME280;24578;48.264;11.436;2023-05-25T06:56:10;96518.03;;;14.42;100.00
13604;BME280;24578;48.264;11.436;2023-05-25T06:59:32;96509.06;;;14.56;100.00
13604;BME280;24578;48.264;11.436;2023-05-25T07:02:53;96518.78;;;14.75;100.00
13604;BME280;24578;48.264;11.436;2023-05-25T07:06:15;96517.63;;;14.89;100.00
13604;BME280;24578;48.264;11.436;2023-05-25T07:09:38;96521.50;;;14.95;100.00
13604;BME280;24578;48.264;11.436;2023-05-25T07:13:00;96512.81;;;14.84;100.00
13604;BME280;24578;48.264;11.436;2023-05-25T07:16:22;96516.03;;;14.98;100.00
13604;BME280;24578;48.264;11.436;2023-05-25T07:19:43;96510.31;;;15.14;100.00
13604;BME280;24578;48.264;11.436;2023-05-25T07:23:05;96514.75;;;15.33;100.00
13604;BME280;24578;48.264;11.436;2023-05-25T07:26:27;96516.66;;;15.31;100.00
13604;BME280;24578;48.264;11.436;2023-05-25T07:29:49;96529.03;;;15.29;100.00
13604;BME280;24578;48.264;11.436;2023-05-25T07:33:10;96527.19;;;15.19;100.00
13604;BME280;24578;48.264;11.436;2023-05-25T07:36:32;96534.56;;;15.04;100.00
13604;BME280;24578;48.264;11.436;2023-05-25T07:39:54;96545.44;;;15.19;100.00
13604;BME280;24578;48.264;11.436;2023-05-25T07:43:16;96543.13;;;15.16;100.00
13604;BME280;24578;48.264;11.436;2023-05-25T07:46:37;96544.13;;;15.25;100.00
13604;BME280;24578;48.264;11.436;2023-05-25T07:49:59;96550.78;;;15.18;100.00
13604;BME280;24578;48.264;11.436;2023-05-25T07:53:21;96545.09;;;15.44;100.00
13604;BME280;24578;48.264;11.436;2023-05-25T07:56:42;96548.56;;;15.54;100.00
13604;BME280;24578;48.264;11.436;2023-05-25T08:00:05;96547.50;;;15.66;100.00
13604;BME280;24578;48.264;11.436;2023-05-25T08:03:28;96554.09;;;15.80;100.00
13604;BME280;24578;48.264;11.436;2023-05-25T08:06:50;96553.88;;;16.23;100.00
13604;BME280;24578;48.264;11.436;2023-05-25T08:10:12;96552.31;;;16.50;100.00
13604;BME280;24578;48.264;11.436;2023-05-25T08:13:33;96552.88;;;16.43;100.00
13604;BME280;24578;48.264;11.436;2023-05-25T08:16:55;96555.06;;;16.58;100.00
13604;BME280;24578;48.264;11.436;2023-05-25T08:20:17;96562.31;;;16.74;100.00
13604;BME280;24578;48.264;11.436;2023-05-25T08:23:39;96559.97;;;16.61;100.00
13604;BME280;24578;48.264;11.436;2023-05-25T08:27:03;96563.63;;;16.31;100.00
13604;BME280;24578;48.264;11.436;2023-05-25T08:30:25;96559.63;;;16.46;100.00
13604;BME280;24578;48.264;11.436;2023-05-25T08:33:46;96562.22;;;16.56;100.00
13604;BME280;24578;48.264;11.436;2023-05-25T08:37:08;96569.66;;;16.21;100.00
13604;BME280;24578;48.264;11.436;2023-05-25T08:40:30;96568.50;;;15.84;100.00
13604;BME280;24578;48.264;11.436;2023-05-25T08:43:53;96562.94;;;15.99;100.00
13604;BME280;24578;48.264;11.436;2023-05-25T08:47:15;96568.03;;;16.01;100.00
13604;BME280;24578;48.264;11.436;2023-05-25T08:50:38;96569.13;;;16.08;100.00
13604;BME280;24578;48.264;11.436;2023-05-25T08:54:11;96579.41;;;16.49;100.00
13604;BME280;24578;48.264;11.436;2023-05-25T09:01:32;96578.19;;;16.43;100.00
13604;BME280;24578;48.264;11.436;2023-05-25T09:04:59;96588.09;;;16.29;100.00
13604;BME280;24578;48.264;11.436;2023-05-25T09:08:22;96586.84;;;16.34;100.00
13604;BME280;24578;48.264;11.436;2023-05-25T09:11:46;96588.34;;;16.36;100.00
13604;BME280;24578;48.264;11.436;2023-05-25T09:15:11;96582.16;;;16.47;100.00
13604;BME280;24578;48.264;11.436;2023-05-25T09:18:33;96589.06;;;16.28;100.00
13604;BME280;24578;48.264;11.436;2023-05-25T09:21:55;96597.97;;;16.55;100.00
13604;BME280;24578;48.264;11.436;2023-05-25T09:25:18;96598.78;;;16.66;100.00
13604;BME280;24578;48.264;11.436;2023-05-25T09:28:46;96590.59;;;16.88;100.00
13604;BME280;24578;48.264;11.436;2023-05-25T09:32:08;96598.72;;;17.05;100.00
13604;BME280;24578;48.264;11.436;2023-05-25T09:35:30;96596.97;;;17.33;100.00
13604;BME280;24578;48.264;11.436;2023-05-25T09:38:52;96597.78;;;17.34;100.00
13604;BME280;24578;48.264;11.436;2023-05-25T09:42:15;96599.56;;;17.33;100.00
13604;BME280;24578;48.264;11.436;2023-05-25T09:45:37;96612.63;;;17.43;100.00
13604;BME280;24578;48.264;11.436;2023-05-25T09:48:59;96611.81;;;17.33;100.00
13604;BME280;24578;48.264;11.436;2023-05-25T09:52:22;96610.72;;;17.63;100.00
13604;BME280;24578;48.264;11.436;2023-05-25T09:55:47;96608.41;;;17.78;100.00
13604;BME280;24578;48.264;11.436;2023-05-25T09:59:09;96607.41;;;17.89;100.00
13604;BME280;24578;48.264;11.436;2023-05-25T10:02:31;96604.97;;;18.06;100.00
13604;BME280;24578;48.264;11.436;2023-05-25T10:05:54;96606.03;;;18.31;100.00
13604;BME280;24578;48.264;11.436;2023-05-25T10:09:21;96604.84;;;18.70;100.00
13604;BME280;24578;48.264;11.436;2023-05-25T10:12:43;96615.09;;;18.81;100.00
13604;BME280;24578;48.264;11.436;2023-05-25T10:16:08;96611.38;;;18.66;100.00
13604;BME280;24578;48.264;11.436;2023-05-25T10:19:40;96604.16;;;19.12;100.00
13604;BME280;24578;48.264;11.436;2023-05-25T10:23:12;96605.72;;;19.31;100.00
13604;BME280;24578;48.264;11.436;2023-05-25T10:26:39;96617.22;;;19.30;100.00
13604;BME280;24578;48.264;11.436;2023-05-25T10:30:03;96612.66;;;19.06;100.00
13604;BME280;24578;48.264;11.436;2023-05-25T10:33:27;96609.09;;;19.15;100.00
13604;BME280;24578;48.264;11.436;2023-05-25T10:36:50;96603.75;;;19.68;100.00
13604;BME280;24578;48.264;11.436;2023-05-25T10:40:12;96595.34;;;19.99;100.00
13604;BME280;24578;48.264;11.436;2023-05-25T10:43:37;96598.94;;;20.06;100.00
13604;BME280;24578;48.264;11.436;2023-05-25T10:46:59;96611.09;;;19.99;100.00
13604;BME280;24578;48.264;11.436;2023-05-25T10:50:24;96612.22;;;19.88;100.00
13604;BME280;24578;48.264;11.436;2023-05-25T10:53:58;96609.06;;;19.85;100.00
13604;BME280;24578;48.264;11.436;2023-05-25T10:57:22;96608.59;;;19.98;100.00
13604;BME280;24578;48.264;11.436;2023-05-25T11:01:05;96610.75;;;19.94;100.00
13604;BME280;24578;48.264;11.436;2023-05-25T11:04:27;96604.41;;;20.54;100.00
13604;BME280;24578;48.264;11.436;2023-05-25T11:07:55;96609.50;;;20.81;97.61
13604;BME280;24578;48.264;11.436;2023-05-25T11:11:17;96599.19;;;21.27;93.01
13604;BME280;24578;48.264;11.436;2023-05-25T11:14:39;96587.94;;;22.13;86.96
13604;BME280;24578;48.264;11.436;2023-05-25T11:18:03;96586.44;;;22.80;79.85
13604;BME280;24578;48.264;11.436;2023-05-25T11:24:48;96587.72;;;23.15;76.32
13604;BME280;24578;48.264;11.436;2023-05-25T11:28:11;96588.84;;;23.20;72.05
13604;BME280;24578;48.264;11.436;2023-05-25T11:31:33;96581.03;;;22.35;74.93
13604;BME280;24578;48.264;11.436;2023-05-25T11:34:57;96573.31;;;22.57;73.60
13604;BME280;24578;48.264;11.436;2023-05-25T11:38:23;96571.25;;;22.98;69.54
13604;BME280;24578;48.264;11.436;2023-05-25T11:41:47;96564.53;;;23.40;68.06
13604;BME280;24578;48.264;11.436;2023-05-25T11:45:10;96566.56;;;24.11;63.79
13604;BME280;24578;48.264;11.436;2023-05-25T11:48:34;96558.78;;;24.53;61.20
13604;BME280;24578;48.264;11.436;2023-05-25T11:51:56;96557.78;;;24.54;59.48
13604;BME280;24578;48.264;11.436;2023-05-25T11:55:18;96555.84;;;23.61;58.79
13604;BME280;24578;48.264;11.436;2023-05-25T11:58:40;96556.00;;;24.61;58.18
13604;BME280;24578;48.264;11.436;2023-05-25T12:02:03;96558.66;;;24.11;57.37
13604;BME280;24578;48.264;11.436;2023-05-25T12:05:24;96541.63;;;25.41;54.73
13604;BME280;24578;48.264;11.436;2023-05-25T12:08:46;96559.22;;;25.14;51.22
13604;BME280;24578;48.264;11.436;2023-05-25T12:12:08;96547.59;;;24.51;54.96
13604;BME280;24578;48.264;11.436;2023-05-25T12:15:30;96553.91;;;24.28;57.48
13604;BME280;24578;48.264;11.436;2023-05-25T12:18:53;96538.47;;;25.73;51.02
13604;BME280;24578;48.264;11.436;2023-05-25T12:22:15;96528.34;;;25.90;47.58
13604;BME280;24578;48.264;11.436;2023-05-25T12:25:37;96537.34;;;26.02;48.16
13604;BME280;24578;48.264;11.436;2023-05-25T12:29:01;96547.19;;;26.49;46.41
13604;BME280;24578;48.264;11.436;2023-05-25T12:32:23;96533.66;;;27.04;46.58
13604;BME280;24578;48.264;11.436;2023-05-25T12:35:47;96544.06;;;27.64;42.33
13604;BME280;24578;48.264;11.436;2023-05-25T12:39:12;96536.41;;;27.36;42.58
13604;BME280;24578;48.264;11.436;2023-05-25T12:42:34;96533.72;;;26.84;44.57
13604;BME280;24578;48.264;11.436;2023-05-25T12:45:56;96526.78;;;26.16;47.02
13604;BME280;24578;48.264;11.436;2023-05-25T12:49:32;96531.19;;;25.88;51.29
13604;BME280;24578;48.264;11.436;2023-05-25T12:53:00;96535.97;;;25.44;49.01
13604;BME280;24578;48.264;11.436;2023-05-25T12:56:22;96530.72;;;24.81;52.76
13604;BME280;24578;48.264;11.436;2023-05-25T12:59:46;96522.84;;;25.98;48.97
13604;BME280;24578;48.264;11.436;2023-05-25T13:03:08;96518.72;;;27.69;44.19
13604;BME280;24578;48.264;11.436;2023-05-25T13:06:32;96527.53;;;27.62;41.19
13604;BME280;24578;48.264;11.436;2023-05-25T13:09:54;96515.00;;;27.24;43.85
13604;BME280;24578;48.264;11.436;2023-05-25T13:13:15;96512.75;;;28.05;41.55
13604;BME280;24578;48.264;11.436;2023-05-25T13:16:37;96515.69;;;28.29;38.36
13604;BME280;24578;48.264;11.436;2023-05-25T13:19:59;96517.19;;;28.18;40.67
13604;BME280;24578;48.264;11.436;2023-05-25T13:23:21;96505.53;;;28.89;38.99
13604;BME280;24578;48.264;11.436;2023-05-25T13:26:43;96507.75;;;28.92;37.52
13604;BME280;24578;48.264;11.436;2023-05-25T13:30:06;96500.50;;;28.80;38.08
13604;BME280;24578;48.264;11.436;2023-05-25T13:33:28;96500.00;;;29.27;38.04
13604;BME280;24578;48.264;11.436;2023-05-25T13:36:50;96487.63;;;29.63;36.63
13604;BME280;24578;48.264;11.436;2023-05-25T13:40:12;96488.66;;;29.51;36.02
13604;BME280;24578;48.264;11.436;2023-05-25T13:43:34;96487.53;;;29.70;35.82
13604;BME280;24578;48.264;11.436;2023-05-25T13:46:56;96492.53;;;29.97;35.04
13604;BME280;24578;48.264;11.436;2023-05-25T13:50:17;96487.66;;;30.06;34.95
13604;BME280;24578;48.264;11.436;2023-05-25T13:53:40;96490.00;;;29.84;34.88
13604;BME280;24578;48.264;11.436;2023-05-25T13:57:02;96492.00;;;28.90;36.06
13604;BME280;24578;48.264;11.436;2023-05-25T14:00:24;96489.19;;;27.84;38.65
13604;BME280;24578;48.264;11.436;2023-05-25T14:03:45;96490.84;;;27.78;40.31
13604;BME280;24578;48.264;11.436;2023-05-25T14:07:07;96503.09;;;27.33;40.64
13604;BME280;24578;48.264;11.436;2023-05-25T14:10:30;96497.97;;;26.86;42.97
13604;BME280;24578;48.264;11.436;2023-05-25T14:13:51;96488.25;;;27.12;42.08
13604;BME280;24578;48.264;11.436;2023-05-25T14:17:13;96488.00;;;27.27;42.14
13604;BME280;24578;48.264;11.436;2023-05-25T14:20:35;96488.22;;;26.33;43.09
13604;BME280;24578;48.264;11.436;2023-05-25T14:23:58;96481.00;;;25.80;47.44
13604;BME280;24578;48.264;11.436;2023-05-25T14:27:20;96491.94;;;25.01;48.33
13604;BME280;24578;48.264;11.436;2023-05-25T14:30:42;96489.91;;;24.40;50.54
13604;BME280;24578;48.264;11.436;2023-05-25T14:34:04;96492.16;;;23.93;54.26
13604;BME280;24578;48.264;11.436;2023-05-25T14:37:25;96491.69;;;23.16;56.66
13604;BME280;24578;48.264;11.436;2023-05-25T14:40:47;96490.78;;;23.38;58.56
13604;BME280;24578;48.264;11.436;2023-05-25T14:44:09;96485.19;;;23.48;57.25
13604;BME280;24578;48.264;11.436;2023-05-25T14:47:31;96490.25;;;23.65;58.22
13604;BME280;24578;48.264;11.436;2023-05-25T14:50:52;96483.25;;;23.79;54.93
13604;BME280;24578;48.264;11.436;2023-05-25T14:54:14;96483.47;;;23.77;55.63
13604;BME280;24578;48.264;11.436;2023-05-25T14:57:36;96484.53;;;23.83;54.46
13604;BME280;24578;48.264;11.436;2023-05-25T15:00:58;96491.94;;;23.51;55.64
13604;BME280;24578;48.264;11.436;2023-05-25T15:04:19;96498.91;;;23.22;56.57
13604;BME280;24578;48.264;11.436;2023-05-25T15:07:41;96494.63;;;23.21;56.29
13604;BME280;24578;48.264;11.436;2023-05-25T15:11:03;96488.44;;;23.29;54.65
13604;BME280;24578;48.264;11.436;2023-05-25T15:14:25;96480.59;;;23.35;53.19
13604;BME280;24578;48.264;11.436;2023-05-25T15:17:46;96486.50;;;23.37;53.06
13604;BME280;24578;48.264;11.436;2023-05-25T15:21:08;96486.91;;;23.56;50.98
13604;BME280;24578;48.264;11.436;2023-05-25T15:24:30;96482.31;;;23.65;51.29
13604;BME280;24578;48.264;11.436;2023-05-25T15:27:52;96487.06;;;23.33;52.24
13604;BME280;24578;48.264;11.436;2023-05-25T15:31:14;96483.78;;;23.31;53.47
13604;BME280;24578;48.264;11.436;2023-05-25T15:34:36;96475.81;;;23.46;53.00
13604;BME280;24578;48.264;11.436;2023-05-25T15:37:58;96481.06;;;23.61;52.08
13604;BME280;24578;48.264;11.436;2023-05-25T15:41:19;96480.25;;;23.82;52.93
13604;BME280;24578;48.264;11.436;2023-05-25T15:44:41;96484.00;;;23.51;51.19
13604;BME280;24578;48.264;11.436;2023-05-25T15:48:03;96489.16;;;23.07;51.72
13604;BME280;24578;48.264;11.436;2023-05-25T15:51:25;96489.34;;;22.91;52.73
13604;BME280;24578;48.264;11.436;2023-05-25T15:54:46;96482.88;;;22.93;52.94
13604;BME280;24578;48.264;11.436;2023-05-25T15:58:08;96479.97;;;22.73;53.34
13604;BME280;24578;48.264;11.436;2023-05-25T16:01:32;96491.88;;;22.69;55.03
13604;BME280;24578;48.264;11.436;2023-05-25T16:04:54;96480.97;;;22.72;54.18
13604;BME280;24578;48.264;11.436;2023-05-25T16:08:16;96480.78;;;22.59;53.40
13604;BME280;24578;48.264;11.436;2023-05-25T16:11:38;96482.53;;;22.28;56.75
13604;BME280;24578;48.264;11.436;2023-05-25T16:15:00;96482.31;;;22.00;56.68
13604;BME280;24578;48.264;11.436;2023-05-25T16:18:21;96485.94;;;21.99;57.63
13604;BME280;24578;48.264;11.436;2023-05-25T16:21:43;96481.56;;;22.06;57.97
13604;BME280;24578;48.264;11.436;2023-05-25T16:25:05;96495.50;;;22.15;57.09
13604;BME280;24578;48.264;11.436;2023-05-25T16:28:27;96487.63;;;22.30;57.02
13604;BME280;24578;48.264;11.436;2023-05-25T16:31:49;96494.44;;;22.24;54.10
13604;BME280;24578;48.264;11.436;2023-05-25T16:35:11;96487.69;;;22.21;53.87
13604;BME280;24578;48.264;11.436;2023-05-25T16:38:33;96495.03;;;22.11;53.92
13604;BME280;24578;48.264;11.436;2023-05-25T16:41:55;96494.47;;;22.01;53.82
13604;BME280;24578;48.264;11.436;2023-05-25T16:45:17;96492.19;;;21.98;55.03
13604;BME280;24578;48.264;11.436;2023-05-25T16:48:41;96493.50;;;21.79;54.99
13604;BME280;24578;48.264;11.436;2023-05-25T16:52:02;96493.66;;;21.77;54.75
13604;BME280;24578;48.264;11.436;2023-05-25T16:55:24;96499.75;;;21.78;54.72
13604;BME280;24578;48.264;11.436;2023-05-25T16:58:46;96496.38;;;21.60;55.58
13604;BME280;24578;48.264;11.436;2023-05-25T17:02:08;96498.22;;;21.60;55.25
13604;BME280;24578;48.264;11.436;2023-05-25T17:05:29;96489.31;;;21.61;55.32
13604;BME280;24578;48.264;11.436;2023-05-25T17:08:51;96499.03;;;21.60;56.24
13604;BME280;24578;48.264;11.436;2023-05-25T17:12:13;96490.31;;;21.52;54.86
13604;BME280;24578;48.264;11.436;2023-05-25T17:15:35;96495.19;;;21.40;56.86
13604;BME280;24578;48.264;11.436;2023-05-25T17:18:56;96500.81;;;21.28;57.73
13604;BME280;24578;48.264;11.436;2023-05-25T17:22:18;96502.97;;;21.25;58.02
13604;BME280;24578;48.264;11.436;2023-05-25T17:25:40;96497.25;;;21.13;57.17
13604;BME280;24578;48.264;11.436;2023-05-25T17:29:02;96502.09;;;21.01;57.46
13604;BME280;24578;48.264;11.436;2023-05-25T17:32:26;96506.25;;;20.87;58.99
13604;BME280;24578;48.264;11.436;2023-05-25T17:35:48;96500.19;;;20.78;59.54